Time;durP1;ratioP1;P1;durP2;ratioP2;P2;SDS_P1;SDS_P2;PMS_P1;PMS_P2;Temp;Humidity;BMP_temperature;BMP_pressure;BME280_temperature;BME280_humidity;BME280_pressure;Samples;Min_cycle;Max_cycle;Signal;HPM_P1;HPM_P2
2022/06/05 00:03:19;;;;;;;;;;;;;;;22.81;53.60;95785.19;10458985;28;2298;-59
2022/06/05 00:08:19;;;;;;;;;;;;;;;22.81;53.26;95772.78;10473047;28;2352;-59
2022/06/05 00:13:38;;;;;;;;;;;;;;;22.81;53.27;95771.97;10457769;28;2281;-59
2022/06/05 00:18:39;;;;;;;;;;;;;;;22.80;53.22;95754.53;10469098;28;2269;-56
2022/06/05 00:23:39;;;;;;;;;;;;;;;22.81;53.34;95750.84;10454217;28;2618;-57
2022/06/05 00:29:03;;;;;;;;;;;;;;;22.81;53.22;95750.84;10458513;28;2574;-59
2022/06/05 00:34:04;;;;;;;;;;;;;;;22.81;53.34;95745.56;10457865;28;2190;-58
2022/06/05 00:39:23;;;;;;;;;;;;;;;22.81;53.06;95748.19;10466967;28;2219;-57
2022/06/05 00:44:43;;;;;;;;;;;;;;;22.80;52.93;95744.75;10473749;28;2470;-57
2022/06/05 00:50:02;;;;;;;;;;;;;;;22.81;52.94;95756.13;10459661;28;1977;-59
2022/06/05 00:55:03;;;;;;;;;;;;;;;22.81;53.00;95748.19;10467684;28;2355;-59
2022/06/05 01:00:05;;;;;;;;;;;;;;;22.82;52.74;95749.75;10453186;28;2188;-60
2022/06/05 01:05:06;;;;;;;;;;;;;;;22.81;52.70;95750.84;10467996;28;2214;-58
2022/06/05 01:10:07;;;;;;;;;;;;;;;22.81;52.66;95738.41;10472597;28;2261;-60
2022/06/05 01:15:18;;;;;;;;;;;;;;;22.81;52.46;95738.41;10473909;28;2145;-60
2022/06/05 01:20:22;;;;;;;;;;;;;;;22.81;52.55;95734.97;10492241;28;2209;-59
2022/06/05 01:25:34;;;;;;;;;;;;;;;22.82;52.47;95725.97;10459879;28;2313;-60
2022/06/05 01:30:47;;;;;;;;;;;;;;;22.81;52.64;95725.22;10450731;28;2229;-59
2022/06/05 01:35:48;;;;;;;;;;;;;;;22.81;52.58;95708.56;10482259;28;2302;-60
2022/06/05 01:40:49;;;;;;;;;;;;;;;22.80;52.56;95707.75;10471494;28;2174;-58
2022/06/05 01:45:49;;;;;;;;;;;;;;;22.81;52.47;95703.28;10441589;28;2934;-60
2022/06/05 01:50:54;;;;;;;;;;;;;;;22.81;52.29;95698.78;10483882;28;2378;-59
2022/06/05 01:55:56;;;;;;;;;;;;;;;22.82;52.05;95694.25;10482946;28;2504;-59
2022/06/05 02:00:57;;;;;;;;;;;;;;;22.81;52.25;95696.13;10440108;28;2344;-59
2022/06/05 02:06:03;;;;;;;;;;;;;;;22.81;52.00;95692.69;10438862;28;2352;-60
2022/06/05 02:11:17;;;;;;;;;;;;;;;22.80;52.14;95686.63;10453687;28;2443;-59
2022/06/05 02:16:18;;;;;;;;;;;;;;;22.81;51.84;95674.19;10481315;28;2413;-58
2022/06/05 02:21:19;;;;;;;;;;;;;;;22.81;51.91;95679.50;10467422;28;2316;-59
2022/06/05 02:26:19;;;;;;;;;;;;;;;22.81;51.95;95667.06;10487438;28;2370;-59
2022/06/05 02:31:27;;;;;;;;;;;;;;;22.81;51.70;95658.34;10469807;28;2308;-59
2022/06/05 02:36:28;;;;;;;;;;;;;;;22.82;51.59;95654.63;10459967;28;2268;-58
2022/06/05 02:41:32;;;;;;;;;;;;;;;22.81;51.62;95647.78;10450059;28;2443;-59
2022/06/05 02:46:32;;;;;;;;;;;;;;;22.82;51.58;95641.41;10446243;28;2335;-58
2022/06/05 02:51:34;;;;;;;;;;;;;;;22.82;51.73;95636.09;10485217;28;2407;-59
2022/06/05 02:56:34;;;;;;;;;;;;;;;22.82;51.63;95620.25;10467946;28;2317;-58
2022/06/05 03:06:53;;;;;;;;;;;;;;;22.81;51.43;95592.28;10472718;28;2265;-58
2022/06/05 03:11:53;;;;;;;;;;;;;;;22.80;51.20;95591.47;10493235;28;2474;-60
2022/06/05 03:16:54;;;;;;;;;;;;;;;22.81;51.39;95582.50;10475286;28;2327;-60
2022/06/05 03:21:54;;;;;;;;;;;;;;;22.82;51.25;95578.75;10476412;28;2394;-58
2022/06/05 03:26:55;;;;;;;;;;;;;;;22.82;51.22;95573.47;10458341;28;2367;-60
2022/06/05 03:31:55;;;;;;;;;;;;;;;22.82;50.99;95564.75;10463403;28;2489;-57
2022/06/05 03:36:55;;;;;;;;;;;;;;;22.83;51.17;95568.97;10491460;28;2382;-55
2022/06/05 03:41:56;;;;;;;;;;;;;;;22.82;51.18;95567.41;10477311;28;2437;-55
2022/06/05 03:46:56;;;;;;;;;;;;;;;22.82;50.98;95559.47;10457538;28;2312;-59
2022/06/05 03:51:56;;;;;;;;;;;;;;;22.82;50.91;95549.69;10494905;28;2468;-58
2022/06/05 03:56:56;;;;;;;;;;;;;;;22.82;51.06;95538.31;10457831;28;2344;-56
2022/06/05 04:01:57;;;;;;;;;;;;;;;22.80;51.19;95535.19;10457639;28;2335;-58
2022/06/05 04:06:58;;;;;;;;;;;;;;;22.79;51.04;95534.44;10457681;28;2387;-59
2022/06/05 04:11:59;;;;;;;;;;;;;;;22.80;51.01;95540.47;10458772;28;2340;-57
2022/06/05 04:17:18;;;;;;;;;;;;;;;22.79;51.28;95545.00;10475078;28;2387;-57
2022/06/05 04:22:23;;;;;;;;;;;;;;;22.79;51.54;95545.00;10477770;28;2367;-59
2022/06/05 04:27:23;;;;;;;;;;;;;;;22.82;51.53;95538.31;10493819;28;2348;-59
2022/06/05 04:32:26;;;;;;;;;;;;;;;22.83;51.25;95516.91;10472832;28;2351;-59
2022/06/05 04:37:27;;;;;;;;;;;;;;;22.83;51.51;95516.13;10444976;28;2352;-58
2022/06/05 04:42:28;;;;;;;;;;;;;;;22.83;51.22;95513.47;10490046;28;2336;-58
2022/06/05 04:47:28;;;;;;;;;;;;;;;22.83;51.33;95506.34;10490306;28;2432;-58
2022/06/05 04:52:29;;;;;;;;;;;;;;;22.83;51.61;95501.06;10484094;28;2376;-58
2022/06/05 04:57:29;;;;;;;;;;;;;;;22.83;51.42;95493.13;10458407;28;2339;-59
2022/06/05 05:02:30;;;;;;;;;;;;;;;22.83;51.17;95497.63;10472999;28;2332;-56
2022/06/05 05:07:30;;;;;;;;;;;;;;;22.83;51.19;95498.41;10473909;28;2454;-59
2022/06/05 05:12:31;;;;;;;;;;;;;;;22.85;51.43;95500.75;10475424;28;2355;-59
2022/06/05 05:17:31;;;;;;;;;;;;;;;22.84;51.15;95493.88;10492289;28;2273;-59
2022/06/05 05:22:37;;;;;;;;;;;;;;;22.84;51.29;95489.41;10492819;28;2233;-60
2022/06/05 05:27:39;;;;;;;;;;;;;;;22.85;51.21;95482.25;10499380;28;2506;-57
2022/06/05 05:32:39;;;;;;;;;;;;;;;22.85;51.15;95464.56;10464632;28;2407;-59
2022/06/05 05:37:40;;;;;;;;;;;;;;;22.84;51.39;95449.75;10460706;28;2459;-60
2022/06/05 05:42:40;;;;;;;;;;;;;;;22.83;51.39;95437.63;10481476;28;2353;-58
2022/06/05 05:47:40;;;;;;;;;;;;;;;22.82;51.27;95451.13;10473865;28;2268;-59
2022/06/05 05:52:41;;;;;;;;;;;;;;;22.85;51.43;95450.53;10463496;28;2364;-59
2022/06/05 05:57:43;;;;;;;;;;;;;;;22.87;51.31;95435.97;10479036;28;2366;-58
2022/06/05 06:02:43;;;;;;;;;;;;;;;22.85;51.68;95424.91;10469755;28;2326;-59
2022/06/05 06:07:44;;;;;;;;;;;;;;;22.87;51.80;95414.03;10453887;28;2517;-58
2022/06/05 06:12:44;;;;;;;;;;;;;;;22.87;51.74;95419.31;10491600;28;2407;-60
2022/06/05 06:17:44;;;;;;;;;;;;;;;22.88;51.86;95397.88;10464984;28;2439;-60
2022/06/05 06:22:45;;;;;;;;;;;;;;;22.88;51.93;95402.38;10484442;28;2420;-56
2022/06/05 06:27:45;;;;;;;;;;;;;;;22.92;51.87;95414.69;10467305;28;2440;-58
2022/06/05 06:32:45;;;;;;;;;;;;;;;22.92;51.67;95416.56;10471153;28;2375;-59
2022/06/05 06:37:46;;;;;;;;;;;;;;;22.91;51.61;95421.09;10489336;28;2409;-59
2022/06/05 06:42:46;;;;;;;;;;;;;;;22.92;52.12;95435.06;10463561;28;2356;-59
2022/06/05 06:47:47;;;;;;;;;;;;;;;22.91;52.33;95442.22;10479270;28;2320;-61
2022/06/05 06:52:48;;;;;;;;;;;;;;;22.94;52.40;95454.03;10488255;28;2440;-58
2022/06/05 06:57:49;;;;;;;;;;;;;;;22.94;52.58;95449.53;10487008;28;2352;-60
2022/06/05 07:02:49;;;;;;;;;;;;;;;22.96;52.38;95451.88;10456182;28;2356;-60
2022/06/05 07:07:49;;;;;;;;;;;;;;;22.97;52.67;95451.63;10456499;28;2408;-58
2022/06/05 07:12:50;;;;;;;;;;;;;;;22.99;52.71;95451.31;10465325;28;2467;-56
2022/06/05 07:17:50;;;;;;;;;;;;;;;23.03;52.60;95476.06;10456321;28;2312;-59
2022/06/05 07:22:50;;;;;;;;;;;;;;;23.03;52.65;95573.88;10474219;28;2373;-60
2022/06/05 07:27:50;;;;;;;;;;;;;;;23.05;52.87;95572.53;10470383;28;2481;-58
2022/06/05 07:32:52;;;;;;;;;;;;;;;23.03;53.03;95577.31;10482815;28;2386;-59
2022/06/05 07:37:52;;;;;;;;;;;;;;;22.98;53.79;95566.84;10495206;28;2382;-59
2022/06/05 07:42:52;;;;;;;;;;;;;;;22.94;54.10;95594.13;10494001;28;2262;-58
2022/06/05 07:47:53;;;;;;;;;;;;;;;23.04;53.31;95596.63;10483386;28;2422;-59
2022/06/05 07:58:12;;;;;;;;;;;;;;;23.00;54.19;95611.50;10506895;28;2391;-60
2022/06/05 08:03:12;;;;;;;;;;;;;;;23.04;54.11;95605.31;10464409;28;2418;-60
2022/06/05 08:08:12;;;;;;;;;;;;;;;22.99;54.34;95609.91;10480977;28;2396;-63
2022/06/05 08:13:13;;;;;;;;;;;;;;;23.13;53.84;95616.00;10486160;28;2457;-57
2022/06/05 08:18:15;;;;;;;;;;;;;;;23.13;51.89;95608.06;10485293;28;2364;-60
2022/06/05 08:23:15;;;;;;;;;;;;;;;23.11;53.18;95618.16;10447783;28;2374;-60
2022/06/05 08:28:16;;;;;;;;;;;;;;;23.05;53.43;95582.31;10480463;28;2393;-60
2022/06/05 08:33:17;;;;;;;;;;;;;;;23.02;53.69;95622.56;10491946;28;2318;-59
2022/06/05 08:43:39;;;;;;;;;;;;;;;22.96;53.98;95598.06;10468484;28;2382;-60
2022/06/05 08:48:42;;;;;;;;;;;;;;;22.89;53.66;95616.19;10451986;28;2233;-60
2022/06/05 08:54:01;;;;;;;;;;;;;;;22.95;53.99;95622.16;10467885;28;2371;-57
2022/06/05 08:59:04;;;;;;;;;;;;;;;22.94;54.67;95626.66;10466138;28;2292;-59
2022/06/05 09:04:23;;;;;;;;;;;;;;;22.92;54.75;95634.09;10492150;28;2341;-58
2022/06/05 09:09:25;;;;;;;;;;;;;;;22.92;52.96;95631.44;10470343;28;2371;-58
2022/06/05 09:14:25;;;;;;;;;;;;;;;22.95;53.09;95612.38;10450717;28;2383;-60
2022/06/05 09:19:26;;;;;;;;;;;;;;;22.94;51.90;95617.94;10450387;28;2320;-58
2022/06/05 09:24:31;;;;;;;;;;;;;;;22.95;51.33;95625.59;10484650;28;2393;-60
2022/06/05 09:29:44;;;;;;;;;;;;;;;22.97;52.60;95627.94;10505788;28;2442;-61
2022/06/05 09:34:45;;;;;;;;;;;;;;;22.91;52.90;95635.19;10445202;28;2248;-59
2022/06/05 09:39:48;;;;;;;;;;;;;;;22.92;50.82;95620.06;10458547;28;2322;-60
2022/06/05 09:44:49;;;;;;;;;;;;;;;22.94;51.73;95628.50;10479919;28;2278;-57
2022/06/05 09:49:50;;;;;;;;;;;;;;;22.94;51.59;95637.22;10466467;28;3003;-60
2022/06/05 09:55:03;;;;;;;;;;;;;;;22.96;52.73;95636.91;10495610;28;2264;-58
2022/06/05 10:00:15;;;;;;;;;;;;;;;22.95;51.76;95641.44;10481382;28;2265;-59
2022/06/05 10:05:20;;;;;;;;;;;;;;;22.95;52.26;95641.44;10478826;28;2429;-57
2022/06/05 10:10:24;;;;;;;;;;;;;;;22.96;52.08;95631.63;10472071;28;2347;-60
2022/06/05 10:15:26;;;;;;;;;;;;;;;22.97;53.16;95612.06;10461016;28;2284;-60
2022/06/05 10:20:27;;;;;;;;;;;;;;;23.00;52.84;95614.91;10454409;28;2454;-57
2022/06/05 10:25:37;;;;;;;;;;;;;;;23.00;53.90;95606.22;10470709;28;2398;-59
2022/06/05 10:30:52;;;;;;;;;;;;;;;22.98;53.98;95603.06;10452383;28;2376;-57
2022/06/05 10:35:53;;;;;;;;;;;;;;;22.99;54.07;95605.41;10454766;28;2342;-59
2022/06/05 10:40:55;;;;;;;;;;;;;;;23.00;53.50;95606.22;10479759;28;2193;-58
2022/06/05 10:45:57;;;;;;;;;;;;;;;23.03;53.60;95600.31;10463653;28;2355;-59
2022/06/05 10:51:09;;;;;;;;;;;;;;;23.03;53.53;95593.19;10455246;28;2411;-58
2022/06/05 10:56:24;;;;;;;;;;;;;;;23.04;52.64;95578.88;10488655;28;2304;-56
2022/06/05 11:01:30;;;;;;;;;;;;;;;23.05;51.67;95555.88;10489700;28;2365;-58
2022/06/05 11:06:44;;;;;;;;;;;;;;;23.04;51.96;95559.59;10507713;28;2040;-56
2022/06/05 11:17:39;;;;;;;;;;;;;;;23.08;53.01;95529.63;10485669;28;1795;-54
2022/06/05 11:22:41;;;;;;;;;;;;;;;23.06;53.38;95525.72;10457937;28;1952;-55
2022/06/05 11:27:45;;;;;;;;;;;;;;;23.07;53.71;95517.50;10486149;28;2306;-60
2022/06/05 11:32:51;;;;;;;;;;;;;;;23.11;53.99;95512.41;10478256;28;1967;-60
2022/06/05 11:38:12;;;;;;;;;;;;;;;23.12;54.09;95503.41;10468503;28;1957;-59
2022/06/05 11:43:15;;;;;;;;;;;;;;;23.14;54.27;95490.66;10472784;28;2485;-57
2022/06/05 11:48:31;;;;;;;;;;;;;;;23.15;53.91;95479.00;10457579;28;1760;-57
2022/06/05 11:53:38;;;;;;;;;;;;;;;23.14;53.88;95483.50;10477185;28;1972;-59
2022/06/05 11:58:40;;;;;;;;;;;;;;;23.15;54.74;95471.06;10489985;28;1976;-58
2022/06/05 12:03:43;;;;;;;;;;;;;;;23.13;54.30;95474.00;10471612;28;1964;-59
2022/06/05 12:08:48;;;;;;;;;;;;;;;23.12;54.52;95475.06;10459434;28;1996;-59
2022/06/05 12:13:55;;;;;;;;;;;;;;;23.15;54.06;95477.13;10470222;28;2027;-58
2022/06/05 12:19:16;;;;;;;;;;;;;;;23.15;54.57;95466.56;10470662;28;1854;-59
2022/06/05 12:24:20;;;;;;;;;;;;;;;23.15;54.37;95469.22;10452676;28;1842;-60
2022/06/05 12:29:39;;;;;;;;;;;;;;;23.13;54.72;95473.22;10475973;28;1806;-61
2022/06/05 12:34:42;;;;;;;;;;;;;;;23.14;54.79;95482.72;10493766;28;1914;-60
2022/06/05 12:39:46;;;;;;;;;;;;;;;23.12;55.15;95467.16;10453881;28;1875;-58
2022/06/05 12:44:48;;;;;;;;;;;;;;;23.15;55.02;95445.41;10452788;28;1858;-60
2022/06/05 12:49:56;;;;;;;;;;;;;;;23.16;55.03;95435.63;10482443;28;1957;-61
2022/06/05 12:54:56;;;;;;;;;;;;;;;23.14;55.19;95433.25;10434914;28;2115;-60
2022/06/05 13:00:03;;;;;;;;;;;;;;;23.13;55.04;95426.41;10476992;28;1873;-61
2022/06/05 13:05:03;;;;;;;;;;;;;;;23.14;54.98;95443.06;10477036;28;1839;-61
2022/06/05 13:10:18;;;;;;;;;;;;;;;23.16;55.19;95441.69;10459534;28;1878;-58
2022/06/05 13:15:18;;;;;;;;;;;;;;;23.14;55.45;95438.53;10454377;28;1843;-58
2022/06/05 13:20:26;;;;;;;;;;;;;;;23.14;55.23;95429.84;10473366;28;1847;-60
2022/06/05 13:25:45;;;;;;;;;;;;;;;23.16;55.42;95403.91;10456930;28;1894;-60
2022/06/05 13:30:53;;;;;;;;;;;;;;;23.18;55.49;95401.72;10471386;28;1965;-60
2022/06/05 13:35:59;;;;;;;;;;;;;;;23.19;55.33;95398.00;10449406;28;2089;-59
2022/06/05 13:41:11;;;;;;;;;;;;;;;23.17;55.34;95414.16;10453498;28;1797;-58
2022/06/05 13:46:30;;;;;;;;;;;;;;;23.17;55.35;95414.16;10457457;28;1508;-61
2022/06/05 13:51:34;;;;;;;;;;;;;;;23.19;55.48;95408.56;10477118;28;1910;-59
2022/06/05 13:56:39;;;;;;;;;;;;;;;23.18;55.11;95407.03;10461971;28;1804;-61
2022/06/05 14:01:47;;;;;;;;;;;;;;;23.18;55.33;95399.88;10438759;28;2005;-59
2022/06/05 14:06:51;;;;;;;;;;;;;;;23.18;55.37;95402.53;10454488;28;1834;-61
2022/06/05 14:11:51;;;;;;;;;;;;;;;23.18;55.48;95399.88;10451134;28;2043;-58
2022/06/05 14:16:51;;;;;;;;;;;;;;;23.18;55.18;95407.03;10484366;28;1822;-59
2022/06/05 14:21:53;;;;;;;;;;;;;;;23.20;55.26;95404.88;10468543;28;1922;-59
2022/06/05 14:27:00;;;;;;;;;;;;;;;23.19;55.14;95437.66;10448778;28;1831;-61
2022/06/05 14:32:04;;;;;;;;;;;;;;;23.18;54.58;95473.91;10471446;28;1902;-60
2022/06/05 14:37:25;;;;;;;;;;;;;;;23.19;54.40;95493.19;10482743;28;1906;-59
2022/06/05 14:42:27;;;;;;;;;;;;;;;23.20;54.34;95492.13;10452337;28;1847;-60
2022/06/05 14:47:45;;;;;;;;;;;;;;;23.17;54.45;95485.56;10470372;28;1798;-59
2022/06/05 14:52:56;;;;;;;;;;;;;;;23.18;54.06;95504.88;10487503;28;1902;-60
2022/06/05 14:57:57;;;;;;;;;;;;;;;23.18;54.03;95524.16;10448466;28;1851;-59
2022/06/05 15:03:08;;;;;;;;;;;;;;;23.17;53.24;95535.00;10458937;28;1849;-60
2022/06/05 15:08:16;;;;;;;;;;;;;;;23.16;52.92;95530.81;10492649;28;1796;-58
2022/06/05 15:13:35;;;;;;;;;;;;;;;23.14;51.51;95535.63;10471044;28;1966;-61
2022/06/05 15:18:35;;;;;;;;;;;;;;;23.13;51.87;95586.91;10458419;28;2098;-61
2022/06/05 15:23:44;;;;;;;;;;;;;;;23.11;52.60;95613.66;10454440;28;1819;-61
2022/06/05 15:29:03;;;;;;;;;;;;;;;23.12;51.41;95595.94;10475366;28;1536;-61
2022/06/05 15:34:03;;;;;;;;;;;;;;;23.10;50.89;95606.78;10475365;28;1910;-59
2022/06/05 15:39:26;;;;;;;;;;;;;;;23.08;50.94;95616.09;10458926;28;1650;-60
2022/06/05 15:44:32;;;;;;;;;;;;;;;23.05;50.31;95604.25;10489065;28;1964;-60
2022/06/05 15:49:52;;;;;;;;;;;;;;;23.04;50.26;95620.41;10470650;28;1909;-61
2022/06/05 15:55:01;;;;;;;;;;;;;;;23.03;50.15;95622.25;10472127;28;1909;-61
2022/06/05 16:00:13;;;;;;;;;;;;;;;23.05;50.43;95598.16;10478184;28;1814;-58
2022/06/05 16:05:16;;;;;;;;;;;;;;;23.05;50.59;95612.19;10484161;28;1877;-60
2022/06/05 16:10:19;;;;;;;;;;;;;;;23.04;50.42;95631.00;10457945;28;2004;-59
2022/06/05 16:15:22;;;;;;;;;;;;;;;23.05;50.60;95643.13;10454788;28;1902;-60
2022/06/05 16:20:33;;;;;;;;;;;;;;;23.05;50.60;95653.69;10477214;28;1996;-56
2022/06/05 16:25:56;;;;;;;;;;;;;;;23.05;50.68;95664.28;10464800;28;2083;-58
2022/06/05 16:31:15;;;;;;;;;;;;;;;23.20;52.12;95650.78;10443722;28;1984;-60
2022/06/05 16:41:45;;;;;;;;;;;;;;;23.04;52.89;95596.63;10456884;28;2001;-60
2022/06/05 16:46:46;;;;;;;;;;;;;;;23.03;52.89;95590.53;10477621;28;1946;-59
2022/06/05 16:51:48;;;;;;;;;;;;;;;22.96;52.53;95590.13;10471207;28;1883;-59
2022/06/05 16:56:51;;;;;;;;;;;;;;;22.79;52.79;95568.78;10455546;28;1866;-63
2022/06/05 17:01:52;;;;;;;;;;;;;;;22.82;52.98;95530.41;10462655;28;2012;-61
2022/06/05 17:07:11;;;;;;;;;;;;;;;23.13;52.27;95561.25;10467261;28;1858;-60
2022/06/05 17:12:17;;;;;;;;;;;;;;;23.43;51.97;95555.38;10466480;28;1971;-63
2022/06/05 17:17:24;;;;;;;;;;;;;;;23.58;51.39;95559.59;10476822;28;1879;-65
2022/06/05 17:22:27;;;;;;;;;;;;;;;23.69;50.96;95576.03;10455577;28;1852;-57
2022/06/05 17:27:36;;;;;;;;;;;;;;;23.78;50.45;95569.72;10469766;28;1837;-56
2022/06/05 17:32:49;;;;;;;;;;;;;;;23.88;50.74;95540.41;10468819;28;1980;-57
2022/06/05 17:38:08;;;;;;;;;;;;;;;23.96;50.60;95542.34;10450536;28;1813;-57
2022/06/05 17:43:14;;;;;;;;;;;;;;;24.03;50.64;95558.63;10472014;28;1823;-56
2022/06/05 17:48:24;;;;;;;;;;;;;;;24.10;49.96;95577.53;10450936;28;1822;-59
2022/06/05 17:53:26;;;;;;;;;;;;;;;24.13;50.25;95606.03;10466809;28;1906;-64
2022/06/05 17:58:28;;;;;;;;;;;;;;;24.16;50.83;95605.47;10454345;28;1938;-59
2022/06/05 18:03:28;;;;;;;;;;;;;;;24.20;50.21;95619.66;10467785;28;2084;-60
2022/06/05 18:08:30;;;;;;;;;;;;;;;24.22;50.13;95628.09;10446179;28;1832;-58
2022/06/05 18:13:50;;;;;;;;;;;;;;;24.22;50.44;95637.91;10473536;28;1987;-60
2022/06/05 18:18:52;;;;;;;;;;;;;;;24.22;50.90;95644.00;10479327;28;1839;-57
2022/06/05 18:23:52;;;;;;;;;;;;;;;24.26;50.00;95654.75;10468625;28;1906;-59
2022/06/05 18:28:52;;;;;;;;;;;;;;;24.27;50.48;95682.03;10458892;28;1854;-60
2022/06/05 18:34:05;;;;;;;;;;;;;;;24.29;50.50;95690.47;10467847;28;1965;-61
2022/06/05 18:39:16;;;;;;;;;;;;;;;24.30;50.07;95702.66;10465934;28;1874;-60
2022/06/05 18:44:17;;;;;;;;;;;;;;;24.30;50.43;95715.91;10440145;28;1843;-58
2022/06/05 18:49:19;;;;;;;;;;;;;;;24.33;50.14;95725.88;10481993;28;1815;-64
2022/06/05 18:54:21;;;;;;;;;;;;;;;24.35;50.51;95742.25;10486744;28;1971;-63
2022/06/05 18:59:23;;;;;;;;;;;;;;;24.32;50.74;95761.41;10463343;28;2079;-67
2022/06/05 19:04:24;;;;;;;;;;;;;;;24.32;50.82;95770.13;10459980;28;1853;-65
2022/06/05 19:09:25;;;;;;;;;;;;;;;24.34;50.20;95761.91;10474915;28;1803;-64
2022/06/05 19:14:28;;;;;;;;;;;;;;;24.37;49.84;95779.84;10453153;28;2024;-66
2022/06/05 19:19:50;;;;;;;;;;;;;;;24.39;50.49;95780.31;10453364;28;1866;-61
2022/06/05 19:24:53;;;;;;;;;;;;;;;24.38;49.56;95784.06;10448899;28;1792;-59
2022/06/05 19:30:03;;;;;;;;;;;;;;;23.92;49.87;95781.50;10466073;28;1783;-58
2022/06/05 19:35:05;;;;;;;;;;;;;;;23.51;49.93;95789.41;10451022;28;2024;-64
2022/06/05 19:40:18;;;;;;;;;;;;;;;23.19;50.65;95795.44;10449685;28;1784;-62
2022/06/05 19:45:30;;;;;;;;;;;;;;;22.91;51.06;95808.84;10462152;28;1770;-54
2022/06/05 19:50:37;;;;;;;;;;;;;;;22.63;51.91;95807.91;10466350;28;1967;-59
2022/06/05 19:55:37;;;;;;;;;;;;;;;22.76;51.80;95830.19;10461235;28;1792;-57
2022/06/05 20:00:37;;;;;;;;;;;;;;;22.76;51.59;95838.09;10468734;28;1869;-56
2022/06/05 20:05:38;;;;;;;;;;;;;;;22.76;51.97;95843.41;10468184;28;2376;-57
2022/06/05 20:10:50;;;;;;;;;;;;;;;22.83;51.67;95843.84;10432363;28;1906;-53
2022/06/05 20:15:57;;;;;;;;;;;;;;;22.90;51.41;95854.81;10451332;28;1862;-58
2022/06/05 20:20:58;;;;;;;;;;;;;;;22.91;51.54;95857.22;10455399;28;1799;-54
2022/06/05 20:26:00;;;;;;;;;;;;;;;22.81;51.71;95856.56;10477413;28;2018;-61
2022/06/05 20:31:04;;;;;;;;;;;;;;;22.59;52.40;95844.66;10481291;28;1914;-60
2022/06/05 20:36:06;;;;;;;;;;;;;;;22.50;52.14;95846.31;10445504;28;2049;-60
2022/06/05 20:41:06;;;;;;;;;;;;;;;22.30;52.84;95833.38;10437319;28;1802;-56
2022/06/05 20:46:08;;;;;;;;;;;;;;;22.21;52.86;95835.09;10463457;28;1863;-58
2022/06/05 20:51:11;;;;;;;;;;;;;;;22.15;52.94;95836.22;10471317;28;1918;-59
2022/06/05 20:56:13;;;;;;;;;;;;;;;21.97;53.65;95830.88;10470355;28;1976;-56
2022/06/05 21:01:14;;;;;;;;;;;;;;;21.89;53.90;95819.03;10462806;28;1837;-58
2022/06/05 21:16:56;;;;;;;;;;;;;;;22.90;52.12;95804.59;10486300;28;1924;-56
2022/06/05 21:21:57;;;;;;;;;;;;;;;23.14;50.51;95795.50;10470821;28;1852;-62
2022/06/05 21:27:04;;;;;;;;;;;;;;;23.25;49.87;95812.00;10458331;28;1758;-58
2022/06/05 21:32:24;;;;;;;;;;;;;;;23.38;49.37;95813.94;10436973;28;1913;-59
2022/06/05 21:37:25;;;;;;;;;;;;;;;23.47;49.31;95814.88;10457922;28;1609;-59
2022/06/05 21:42:26;;;;;;;;;;;;;;;23.53;48.57;95815.56;10459575;28;2333;-55
2022/06/05 21:47:26;;;;;;;;;;;;;;;23.56;48.55;95825.53;10464999;28;1942;-55
2022/06/05 21:52:28;;;;;;;;;;;;;;;23.60;48.65;95827.31;10458704;28;1991;-54
2022/06/05 21:57:29;;;;;;;;;;;;;;;23.63;48.22;95825.97;10468313;28;2126;-55
2022/06/05 22:02:34;;;;;;;;;;;;;;;23.68;48.26;95839.88;10450842;28;1799;-59
2022/06/05 22:07:35;;;;;;;;;;;;;;;23.72;48.03;95835.59;10457965;28;1825;-58
2022/06/05 22:12:35;;;;;;;;;;;;;;;23.75;48.60;95840.31;10449438;28;1919;-56
2022/06/05 22:17:35;;;;;;;;;;;;;;;23.67;48.75;95840.97;10447646;28;1750;-57
2022/06/05 22:22:37;;;;;;;;;;;;;;;23.08;50.21;95846.91;10466289;28;1790;-56
2022/06/05 22:27:37;;;;;;;;;;;;;;;22.64;51.26;95844.63;10472296;28;1856;-52
2022/06/05 22:32:38;;;;;;;;;;;;;;;22.85;50.96;95850.41;10443987;28;1910;-57
2022/06/05 22:37:38;;;;;;;;;;;;;;;23.02;50.62;95842.75;10456978;28;1941;-58
2022/06/05 22:42:39;;;;;;;;;;;;;;;23.09;50.19;95850.34;10447361;28;1834;-57
2022/06/05 22:47:39;;;;;;;;;;;;;;;22.95;50.88;95846.84;10489903;28;1835;-58
2022/06/05 22:52:40;;;;;;;;;;;;;;;22.87;51.03;95850.13;10479636;28;1909;-59
2022/06/05 22:57:40;;;;;;;;;;;;;;;22.91;50.72;95851.13;10470829;28;1772;-59
2022/06/05 23:03:00;;;;;;;;;;;;;;;22.96;50.07;95862.41;10477909;28;1910;-62
2022/06/05 23:08:00;;;;;;;;;;;;;;;22.98;49.77;95860.25;10459076;28;1814;-62
2022/06/05 23:13:01;;;;;;;;;;;;;;;22.99;49.48;95859.22;10471663;28;1971;-60
2022/06/05 23:18:01;;;;;;;;;;;;;;;23.00;49.55;95860.00;10463141;28;1873;-62
2022/06/05 23:23:01;;;;;;;;;;;;;;;22.99;49.50;95848.63;10474637;28;1845;-61
2022/06/05 23:28:03;;;;;;;;;;;;;;;23.00;49.86;95844.13;10474800;28;1792;-62
2022/06/05 23:33:04;;;;;;;;;;;;;;;22.99;49.52;95839.91;10470993;28;1953;-61
2022/06/05 23:38:05;;;;;;;;;;;;;;;22.97;49.74;95832.28;10488463;28;1795;-60
2022/06/05 23:43:06;;;;;;;;;;;;;;;22.98;49.78;95825.13;10474322;28;1853;-60
2022/06/05 23:48:07;;;;;;;;;;;;;;;22.97;49.37;95820.91;10463263;28;1800;-61
2022/06/05 23:53:07;;;;;;;;;;;;;;;22.96;49.58;95811.38;10485879;28;1910;-61
2022/06/05 23:58:08;;;;;;;;;;;;;;;22.96;49.22;95811.38;10472832;28;1859;-61
